sensor_id;sensor_type;location;lat;lon;timestamp;temperature;humidity
1417;DHT22;703;51.162;13.574;2023-08-12T00:00:48;17.90;99.90
1417;DHT22;703;51.162;13.574;2023-08-12T00:03:14;17.80;99.90
1417;DHT22;703;51.162;13.574;2023-08-12T00:05:39;17.80;99.90
1417;DHT22;703;51.162;13.574;2023-08-12T00:08:05;17.70;99.90
1417;DHT22;703;51.162;13.574;2023-08-12T00:10:31;17.70;99.90
1417;DHT22;703;51.162;13.574;2023-08-12T00:12:56;17.60;99.90
1417;DHT22;703;51.162;13.574;2023-08-12T00:15:22;17.60;99.90
1417;DHT22;703;51.162;13.574;2023-08-12T00:17:48;17.50;99.90
1417;DHT22;703;51.162;13.574;2023-08-12T00:20:13;17.40;99.90
1417;DHT22;703;51.162;13.574;2023-08-12T00:22:39;17.40;99.90
1417;DHT22;703;51.162;13.574;2023-08-12T00:25:05;17.40;99.90
1417;DHT22;703;51.162;13.574;2023-08-12T00:27:31;17.20;99.90
1417;DHT22;703;51.162;13.574;2023-08-12T00:29:56;17.20;99.90
1417;DHT22;703;51.162;13.574;2023-08-12T00:32:22;17.20;99.90
1417;DHT22;703;51.162;13.574;2023-08-12T00:34:47;17.10;99.90
1417;DHT22;703;51.162;13.574;2023-08-12T00:37:13;17.00;99.90
1417;DHT22;703;51.162;13.574;2023-08-12T00:39:38;17.00;99.90
1417;DHT22;703;51.162;13.574;2023-08-12T00:42:04;16.90;99.90
1417;DHT22;703;51.162;13.574;2023-08-12T00:44:29;16.80;99.90
1417;DHT22;703;51.162;13.574;2023-08-12T00:46:55;16.80;99.90
1417;DHT22;703;51.162;13.574;2023-08-12T00:49:22;16.80;99.90
1417;DHT22;703;51.162;13.574;2023-08-12T00:51:49;16.70;99.90
1417;DHT22;703;51.162;13.574;2023-08-12T00:54:14;16.60;99.90
1417;DHT22;703;51.162;13.574;2023-08-12T00:56:41;16.60;99.90
1417;DHT22;703;51.162;13.574;2023-08-12T00:59:07;16.50;99.90
1417;DHT22;703;51.162;13.574;2023-08-12T01:01:33;16.50;99.90
1417;DHT22;703;51.162;13.574;2023-08-12T01:03:59;16.50;99.90
1417;DHT22;703;51.162;13.574;2023-08-12T01:06:24;16.50;99.90
1417;DHT22;703;51.162;13.574;2023-08-12T01:08:50;16.50;99.90
1417;DHT22;703;51.162;13.574;2023-08-12T01:11:16;16.40;99.90
1417;DHT22;703;51.162;13.574;2023-08-12T01:16:29;16.30;99.90
1417;DHT22;703;51.162;13.574;2023-08-12T01:18:55;16.40;99.90
1417;DHT22;703;51.162;13.574;2023-08-12T01:21:21;16.30;99.90
1417;DHT22;703;51.162;13.574;2023-08-12T01:23:46;16.30;99.90
1417;DHT22;703;51.162;13.574;2023-08-12T01:26:12;16.30;99.90
1417;DHT22;703;51.162;13.574;2023-08-12T01:28:38;16.20;99.90
1417;DHT22;703;51.162;13.574;2023-08-12T01:31:15;16.30;99.90
1417;DHT22;703;51.162;13.574;2023-08-12T01:36:26;16.20;99.90
1417;DHT22;703;51.162;13.574;2023-08-12T01:38:54;16.30;99.90
1417;DHT22;703;51.162;13.574;2023-08-12T01:41:20;16.30;99.90
1417;DHT22;703;51.162;13.574;2023-08-12T01:43:48;16.20;99.90
1417;DHT22;703;51.162;13.574;2023-08-12T01:46:14;16.20;99.90
1417;DHT22;703;51.162;13.574;2023-08-12T01:48:39;16.20;99.90
1417;DHT22;703;51.162;13.574;2023-08-12T01:51:05;16.20;99.90
1417;DHT22;703;51.162;13.574;2023-08-12T01:53:30;16.20;99.90
1417;DHT22;703;51.162;13.574;2023-08-12T01:55:56;16.20;99.90
1417;DHT22;703;51.162;13.574;2023-08-12T01:58:21;16.20;99.90
1417;DHT22;703;51.162;13.574;2023-08-12T02:00:47;16.20;99.90
1417;DHT22;703;51.162;13.574;2023-08-12T02:03:12;16.20;99.90
1417;DHT22;703;51.162;13.574;2023-08-12T02:05:38;16.10;99.90
1417;DHT22;703;51.162;13.574;2023-08-12T02:08:04;16.00;99.90
1417;DHT22;703;51.162;13.574;2023-08-12T02:10:29;16.00;99.90
1417;DHT22;703;51.162;13.574;2023-08-12T02:12:55;16.00;99.90
1417;DHT22;703;51.162;13.574;2023-08-12T02:15:20;16.00;99.90
1417;DHT22;703;51.162;13.574;2023-08-12T02:17:49;16.00;99.90
1417;DHT22;703;51.162;13.574;2023-08-12T02:20:15;16.00;99.90
1417;DHT22;703;51.162;13.574;2023-08-12T02:22:40;16.00;99.90
1417;DHT22;703;51.162;13.574;2023-08-12T02:25:06;15.90;99.90
1417;DHT22;703;51.162;13.574;2023-08-12T02:27:31;15.90;99.90
1417;DHT22;703;51.162;13.574;2023-08-12T02:29:57;15.80;99.90
1417;DHT22;703;51.162;13.574;2023-08-12T02:32:22;15.90;99.90
1417;DHT22;703;51.162;13.574;2023-08-12T02:34:48;15.90;99.90
1417;DHT22;703;51.162;13.574;2023-08-12T02:37:13;15.50;99.90
1417;DHT22;703;51.162;13.574;2023-08-12T02:39:39;15.80;99.90
1417;DHT22;703;51.162;13.574;2023-08-12T02:42:04;15.70;99.90
1417;DHT22;703;51.162;13.574;2023-08-12T02:44:30;15.70;99.90
1417;DHT22;703;51.162;13.574;2023-08-12T02:46:55;15.70;99.90
1417;DHT22;703;51.162;13.574;2023-08-12T02:49:21;15.70;99.90
1417;DHT22;703;51.162;13.574;2023-08-12T02:51:46;15.80;99.90
1417;DHT22;703;51.162;13.574;2023-08-12T02:54:12;15.70;99.90
1417;DHT22;703;51.162;13.574;2023-08-12T02:56:37;15.70;99.90
1417;DHT22;703;51.162;13.574;2023-08-12T02:59:03;15.60;99.90
1417;DHT22;703;51.162;13.574;2023-08-12T03:01:28;15.60;99.90
1417;DHT22;703;51.162;13.574;2023-08-12T03:03:55;15.70;99.90
1417;DHT22;703;51.162;13.574;2023-08-12T03:06:20;15.70;99.90
1417;DHT22;703;51.162;13.574;2023-08-12T03:08:46;15.60;99.90
1417;DHT22;703;51.162;13.574;2023-08-12T03:11:11;15.60;99.90
1417;DHT22;703;51.162;13.574;2023-08-12T03:13:37;15.50;99.90
1417;DHT22;703;51.162;13.574;2023-08-12T03:16:02;15.60;99.90
1417;DHT22;703;51.162;13.574;2023-08-12T03:18:28;15.70;99.90
1417;DHT22;703;51.162;13.574;2023-08-12T03:20:53;15.70;99.90
1417;DHT22;703;51.162;13.574;2023-08-12T03:23:19;15.70;99.90
1417;DHT22;703;51.162;13.574;2023-08-12T03:25:46;15.60;99.90
1417;DHT22;703;51.162;13.574;2023-08-12T03:28:12;15.60;99.90
1417;DHT22;703;51.162;13.574;2023-08-12T03:30:37;15.60;99.90
1417;DHT22;703;51.162;13.574;2023-08-12T03:33:03;15.60;99.90
1417;DHT22;703;51.162;13.574;2023-08-12T03:35:29;15.60;99.90
1417;DHT22;703;51.162;13.574;2023-08-12T03:37:54;15.50;99.90
1417;DHT22;703;51.162;13.574;2023-08-12T03:40:20;15.50;99.90
1417;DHT22;703;51.162;13.574;2023-08-12T03:42:45;15.60;99.90
1417;DHT22;703;51.162;13.574;2023-08-12T03:45:11;15.60;99.90
1417;DHT22;703;51.162;13.574;2023-08-12T03:47:36;15.60;99.90
1417;DHT22;703;51.162;13.574;2023-08-12T03:50:02;15.60;99.90
1417;DHT22;703;51.162;13.574;2023-08-12T03:52:28;15.60;99.90
1417;DHT22;703;51.162;13.574;2023-08-12T03:54:53;15.60;99.90
1417;DHT22;703;51.162;13.574;2023-08-12T03:57:18;15.60;99.90
1417;DHT22;703;51.162;13.574;2023-08-12T03:59:44;15.70;99.90
1417;DHT22;703;51.162;13.574;2023-08-12T04:02:10;15.80;99.90
1417;DHT22;703;51.162;13.574;2023-08-12T04:04:36;15.80;99.90
1417;DHT22;703;51.162;13.574;2023-08-12T04:07:01;15.80;99.90
1417;DHT22;703;51.162;13.574;2023-08-12T04:09:27;15.80;99.90
1417;DHT22;703;51.162;13.574;2023-08-12T04:11:52;15.80;99.90
1417;DHT22;703;51.162;13.574;2023-08-12T04:14:18;15.80;99.90
1417;DHT22;703;51.162;13.574;2023-08-12T04:16:43;15.80;99.90
1417;DHT22;703;51.162;13.574;2023-08-12T04:19:09;15.90;99.90
1417;DHT22;703;51.162;13.574;2023-08-12T04:21:34;15.90;99.90
1417;DHT22;703;51.162;13.574;2023-08-12T04:24:00;16.10;99.90
1417;DHT22;703;51.162;13.574;2023-08-12T04:26:25;16.00;99.90
1417;DHT22;703;51.162;13.574;2023-08-12T04:28:51;16.00;99.90
1417;DHT22;703;51.162;13.574;2023-08-12T04:31:16;16.00;99.90
1417;DHT22;703;51.162;13.574;2023-08-12T04:33:42;16.00;99.90
1417;DHT22;703;51.162;13.574;2023-08-12T04:36:07;16.00;99.90
1417;DHT22;703;51.162;13.574;2023-08-12T04:38:33;16.00;99.90
1417;DHT22;703;51.162;13.574;2023-08-12T04:40:58;16.10;99.90
1417;DHT22;703;51.162;13.574;2023-08-12T04:43:24;16.50;99.90
1417;DHT22;703;51.162;13.574;2023-08-12T04:45:49;16.80;99.90
1417;DHT22;703;51.162;13.574;2023-08-12T04:48:15;16.90;99.90
1417;DHT22;703;51.162;13.574;2023-08-12T04:50:43;17.00;99.90
1417;DHT22;703;51.162;13.574;2023-08-12T04:53:09;17.10;99.90
1417;DHT22;703;51.162;13.574;2023-08-12T04:55:35;17.10;99.90
1417;DHT22;703;51.162;13.574;2023-08-12T04:58:01;17.10;99.90
1417;DHT22;703;51.162;13.574;2023-08-12T05:00:26;17.00;99.90
1417;DHT22;703;51.162;13.574;2023-08-12T05:02:53;17.00;99.90
1417;DHT22;703;51.162;13.574;2023-08-12T05:05:18;17.00;99.90
1417;DHT22;703;51.162;13.574;2023-08-12T05:07:44;17.00;99.90
1417;DHT22;703;51.162;13.574;2023-08-12T05:10:14;17.00;99.90
1417;DHT22;703;51.162;13.574;2023-08-12T05:12:40;17.10;99.90
1417;DHT22;703;51.162;13.574;2023-08-12T05:15:06;17.10;99.90
1417;DHT22;703;51.162;13.574;2023-08-12T05:17:31;17.20;99.90
1417;DHT22;703;51.162;13.574;2023-08-12T05:19:57;17.30;99.90
1417;DHT22;703;51.162;13.574;2023-08-12T05:22:22;17.70;99.90
1417;DHT22;703;51.162;13.574;2023-08-12T05:24:48;18.00;99.90
1417;DHT22;703;51.162;13.574;2023-08-12T05:27:13;18.20;99.90
1417;DHT22;703;51.162;13.574;2023-08-12T05:29:39;18.40;99.90
1417;DHT22;703;51.162;13.574;2023-08-12T05:32:06;18.60;99.90
1417;DHT22;703;51.162;13.574;2023-08-12T05:34:32;18.70;99.90
1417;DHT22;703;51.162;13.574;2023-08-12T05:36:58;18.70;99.90
1417;DHT22;703;51.162;13.574;2023-08-12T05:39:23;18.90;99.90
1417;DHT22;703;51.162;13.574;2023-08-12T05:41:49;18.90;99.90
1417;DHT22;703;51.162;13.574;2023-08-12T05:44:14;19.00;99.90
1417;DHT22;703;51.162;13.574;2023-08-12T05:46:40;19.10;99.90
1417;DHT22;703;51.162;13.574;2023-08-12T05:49:06;19.20;99.90
1417;DHT22;703;51.162;13.574;2023-08-12T05:51:31;19.20;99.90
1417;DHT22;703;51.162;13.574;2023-08-12T05:53:57;19.20;99.90
1417;DHT22;703;51.162;13.574;2023-08-12T05:56:22;19.20;99.90
1417;DHT22;703;51.162;13.574;2023-08-12T05:58:48;19.20;99.90
1417;DHT22;703;51.162;13.574;2023-08-12T06:01:13;19.50;99.90
1417;DHT22;703;51.162;13.574;2023-08-12T06:03:39;19.70;99.90
1417;DHT22;703;51.162;13.574;2023-08-12T06:06:04;19.70;99.90
1417;DHT22;703;51.162;13.574;2023-08-12T06:08:30;19.90;99.90
1417;DHT22;703;51.162;13.574;2023-08-12T06:10:56;20.10;99.90
1417;DHT22;703;51.162;13.574;2023-08-12T06:13:21;20.20;99.90
1417;DHT22;703;51.162;13.574;2023-08-12T06:15:47;20.40;99.90
1417;DHT22;703;51.162;13.574;2023-08-12T06:18:12;20.50;99.90
1417;DHT22;703;51.162;13.574;2023-08-12T06:20:38;20.60;99.90
1417;DHT22;703;51.162;13.574;2023-08-12T06:23:03;20.60;99.90
1417;DHT22;703;51.162;13.574;2023-08-12T06:25:29;20.60;99.90
1417;DHT22;703;51.162;13.574;2023-08-12T06:27:54;20.60;99.90
1417;DHT22;703;51.162;13.574;2023-08-12T06:30:20;20.70;99.90
1417;DHT22;703;51.162;13.574;2023-08-12T06:32:45;20.90;99.90
1417;DHT22;703;51.162;13.574;2023-08-12T06:35:11;20.90;99.90
1417;DHT22;703;51.162;13.574;2023-08-12T06:37:37;20.80;99.90
1417;DHT22;703;51.162;13.574;2023-08-12T06:40:02;20.80;99.90
1417;DHT22;703;51.162;13.574;2023-08-12T06:42:28;20.80;99.90
1417;DHT22;703;51.162;13.574;2023-08-12T06:44:55;20.90;99.90
1417;DHT22;703;51.162;13.574;2023-08-12T06:47:21;21.10;99.90
1417;DHT22;703;51.162;13.574;2023-08-12T06:49:47;21.40;99.90
1417;DHT22;703;51.162;13.574;2023-08-12T06:52:12;21.60;99.90
1417;DHT22;703;51.162;13.574;2023-08-12T06:54:38;22.00;99.90
1417;DHT22;703;51.162;13.574;2023-08-12T06:57:03;22.00;99.90
1417;DHT22;703;51.162;13.574;2023-08-12T06:59:29;22.30;99.90
1417;DHT22;703;51.162;13.574;2023-08-12T07:01:54;22.10;99.90
1417;DHT22;703;51.162;13.574;2023-08-12T07:04:20;22.00;99.90
1417;DHT22;703;51.162;13.574;2023-08-12T07:06:46;22.00;99.90
1417;DHT22;703;51.162;13.574;2023-08-12T07:09:11;21.90;99.90
1417;DHT22;703;51.162;13.574;2023-08-12T07:11:38;21.80;99.90
1417;DHT22;703;51.162;13.574;2023-08-12T07:14:03;21.90;99.90
1417;DHT22;703;51.162;13.574;2023-08-12T07:16:29;22.10;99.90
1417;DHT22;703;51.162;13.574;2023-08-12T07:18:54;22.20;99.90
1417;DHT22;703;51.162;13.574;2023-08-12T07:21:20;22.20;99.90
1417;DHT22;703;51.162;13.574;2023-08-12T07:23:45;22.50;99.90
1417;DHT22;703;51.162;13.574;2023-08-12T07:26:11;22.80;99.90
1417;DHT22;703;51.162;13.574;2023-08-12T07:28:36;23.10;99.90
1417;DHT22;703;51.162;13.574;2023-08-12T07:31:02;23.40;99.90
1417;DHT22;703;51.162;13.574;2023-08-12T07:33:28;23.40;99.90
1417;DHT22;703;51.162;13.574;2023-08-12T07:35:53;23.60;99.90
1417;DHT22;703;51.162;13.574;2023-08-12T07:38:19;23.90;99.90
1417;DHT22;703;51.162;13.574;2023-08-12T07:40:44;24.10;99.90
1417;DHT22;703;51.162;13.574;2023-08-12T07:43:10;24.40;99.90
1417;DHT22;703;51.162;13.574;2023-08-12T07:45:35;24.30;99.90
1417;DHT22;703;51.162;13.574;2023-08-12T07:48:01;24.10;99.90
1417;DHT22;703;51.162;13.574;2023-08-12T07:50:26;23.80;99.90
1417;DHT22;703;51.162;13.574;2023-08-12T07:52:52;23.70;99.90
1417;DHT22;703;51.162;13.574;2023-08-12T07:55:18;23.70;99.90
1417;DHT22;703;51.162;13.574;2023-08-12T07:57:44;26.10;99.90
1417;DHT22;703;51.162;13.574;2023-08-12T08:00:10;23.50;99.90
1417;DHT22;703;51.162;13.574;2023-08-12T08:02:35;23.50;99.90
1417;DHT22;703;51.162;13.574;2023-08-12T08:05:01;23.50;99.90
1417;DHT22;703;51.162;13.574;2023-08-12T08:07:27;23.60;99.90
1417;DHT22;703;51.162;13.574;2023-08-12T08:09:53;23.80;99.90
1417;DHT22;703;51.162;13.574;2023-08-12T08:12:19;24.30;99.90
1417;DHT22;703;51.162;13.574;2023-08-12T08:14:45;24.90;99.90
1417;DHT22;703;51.162;13.574;2023-08-12T08:17:10;25.40;99.90
1417;DHT22;703;51.162;13.574;2023-08-12T08:19:36;25.90;99.90
1417;DHT22;703;51.162;13.574;2023-08-12T08:22:01;25.80;99.90
1417;DHT22;703;51.162;13.574;2023-08-12T08:24:28;25.30;99.90
1417;DHT22;703;51.162;13.574;2023-08-12T08:26:54;25.20;99.90
1417;DHT22;703;51.162;13.574;2023-08-12T08:29:19;25.30;99.90
1417;DHT22;703;51.162;13.574;2023-08-12T08:31:45;25.80;99.90
1417;DHT22;703;51.162;13.574;2023-08-12T08:34:10;26.40;99.90
1417;DHT22;703;51.162;13.574;2023-08-12T08:36:36;26.50;99.90
1417;DHT22;703;51.162;13.574;2023-08-12T08:39:01;26.50;99.90
1417;DHT22;703;51.162;13.574;2023-08-12T08:41:28;26.50;99.90
1417;DHT22;703;51.162;13.574;2023-08-12T08:43:55;26.80;99.90
1417;DHT22;703;51.162;13.574;2023-08-12T08:46:25;27.10;99.90
1417;DHT22;703;51.162;13.574;2023-08-12T08:48:51;27.40;99.90
1417;DHT22;703;51.162;13.574;2023-08-12T08:51:17;27.70;99.90
1417;DHT22;703;51.162;13.574;2023-08-12T08:53:43;27.60;99.90
1417;DHT22;703;51.162;13.574;2023-08-12T08:56:08;27.90;99.90
1417;DHT22;703;51.162;13.574;2023-08-12T08:58:37;28.20;99.90
1417;DHT22;703;51.162;13.574;2023-08-12T09:01:03;28.40;99.90
1417;DHT22;703;51.162;13.574;2023-08-12T09:03:30;28.60;99.90
1417;DHT22;703;51.162;13.574;2023-08-12T09:05:56;28.90;99.90
1417;DHT22;703;51.162;13.574;2023-08-12T09:08:23;29.00;99.90
1417;DHT22;703;51.162;13.574;2023-08-12T09:10:49;28.90;99.90
1417;DHT22;703;51.162;13.574;2023-08-12T09:13:15;29.20;99.90
1417;DHT22;703;51.162;13.574;2023-08-12T09:15:42;29.70;99.90
1417;DHT22;703;51.162;13.574;2023-08-12T09:18:08;29.60;99.90
1417;DHT22;703;51.162;13.574;2023-08-12T09:20:34;29.30;99.90
1417;DHT22;703;51.162;13.574;2023-08-12T09:23:00;29.20;99.90
1417;DHT22;703;51.162;13.574;2023-08-12T09:28:28;29.10;99.90
1417;DHT22;703;51.162;13.574;2023-08-12T09:31:06;29.40;99.90
1417;DHT22;703;51.162;13.574;2023-08-12T09:33:38;29.30;99.90
1417;DHT22;703;51.162;13.574;2023-08-12T09:36:09;29.60;99.90
1417;DHT22;703;51.162;13.574;2023-08-12T09:38:35;29.70;99.90
1417;DHT22;703;51.162;13.574;2023-08-12T09:41:23;29.80;99.90
1417;DHT22;703;51.162;13.574;2023-08-12T09:44:03;29.90;99.90
1417;DHT22;703;51.162;13.574;2023-08-12T09:46:29;29.70;99.90
1417;DHT22;703;51.162;13.574;2023-08-12T09:49:01;29.60;99.90
1417;DHT22;703;51.162;13.574;2023-08-12T09:51:40;29.50;99.90
1417;DHT22;703;51.162;13.574;2023-08-12T09:54:11;29.40;99.90
1417;DHT22;703;51.162;13.574;2023-08-12T09:56:37;29.30;99.90
1417;DHT22;703;51.162;13.574;2023-08-12T09:59:07;29.30;99.90
1417;DHT22;703;51.162;13.574;2023-08-12T10:01:34;29.30;99.90
1417;DHT22;703;51.162;13.574;2023-08-12T10:04:00;29.10;99.90
1417;DHT22;703;51.162;13.574;2023-08-12T10:06:26;28.90;99.90
1417;DHT22;703;51.162;13.574;2023-08-12T10:08:53;29.00;99.90
1417;DHT22;703;51.162;13.574;2023-08-12T10:11:18;28.90;99.90
1417;DHT22;703;51.162;13.574;2023-08-12T10:13:44;28.90;99.90
1417;DHT22;703;51.162;13.574;2023-08-12T10:16:10;28.80;99.90
1417;DHT22;703;51.162;13.574;2023-08-12T10:18:39;28.90;99.90
1417;DHT22;703;51.162;13.574;2023-08-12T10:21:04;28.90;99.90
1417;DHT22;703;51.162;13.574;2023-08-12T10:23:31;28.90;99.90
1417;DHT22;703;51.162;13.574;2023-08-12T10:25:57;28.90;99.90
1417;DHT22;703;51.162;13.574;2023-08-12T10:28:23;29.00;99.90
1417;DHT22;703;51.162;13.574;2023-08-12T10:30:48;29.00;99.90
1417;DHT22;703;51.162;13.574;2023-08-12T10:33:14;29.00;99.90
1417;DHT22;703;51.162;13.574;2023-08-12T10:38:07;29.10;99.90
1417;DHT22;703;51.162;13.574;2023-08-12T10:40:33;29.00;99.90
1417;DHT22;703;51.162;13.574;2023-08-12T10:42:59;29.00;99.90
1417;DHT22;703;51.162;13.574;2023-08-12T10:45:24;28.90;99.90
1417;DHT22;703;51.162;13.574;2023-08-12T10:50:38;29.00;99.90
1417;DHT22;703;51.162;13.574;2023-08-12T10:55:54;29.40;99.90
1417;DHT22;703;51.162;13.574;2023-08-12T10:58:26;29.20;99.90
1417;DHT22;703;51.162;13.574;2023-08-12T11:00:55;29.20;99.90
1417;DHT22;703;51.162;13.574;2023-08-12T11:03:21;29.60;99.90
1417;DHT22;703;51.162;13.574;2023-08-12T11:05:47;29.80;99.90
1417;DHT22;703;51.162;13.574;2023-08-12T11:08:13;30.00;99.90
1417;DHT22;703;51.162;13.574;2023-08-12T11:10:39;30.00;99.90
1417;DHT22;703;51.162;13.574;2023-08-12T11:13:05;30.20;99.90
1417;DHT22;703;51.162;13.574;2023-08-12T11:18:07;30.30;99.90
1417;DHT22;703;51.162;13.574;2023-08-12T11:20:33;30.40;99.90
1417;DHT22;703;51.162;13.574;2023-08-12T11:22:59;30.20;99.90
1417;DHT22;703;51.162;13.574;2023-08-12T11:25:27;29.80;99.90
1417;DHT22;703;51.162;13.574;2023-08-12T11:27:53;29.60;99.90
1417;DHT22;703;51.162;13.574;2023-08-12T11:30:19;29.40;99.90
1417;DHT22;703;51.162;13.574;2023-08-12T11:32:49;29.20;99.90
1417;DHT22;703;51.162;13.574;2023-08-12T11:35:15;29.20;99.90
1417;DHT22;703;51.162;13.574;2023-08-12T11:37:41;29.10;99.90
1417;DHT22;703;51.162;13.574;2023-08-12T11:40:08;29.10;99.90
1417;DHT22;703;51.162;13.574;2023-08-12T11:42:34;29.20;99.90
1417;DHT22;703;51.162;13.574;2023-08-12T11:45:00;29.20;99.90
1417;DHT22;703;51.162;13.574;2023-08-12T11:47:26;29.10;99.90
1417;DHT22;703;51.162;13.574;2023-08-12T11:49:52;29.10;99.90
1417;DHT22;703;51.162;13.574;2023-08-12T11:52:19;29.20;99.90
1417;DHT22;703;51.162;13.574;2023-08-12T11:54:48;29.30;99.90
1417;DHT22;703;51.162;13.574;2023-08-12T11:57:14;29.40;99.90
1417;DHT22;703;51.162;13.574;2023-08-12T11:59:40;31.60;99.90
1417;DHT22;703;51.162;13.574;2023-08-12T12:02:05;29.60;99.90
1417;DHT22;703;51.162;13.574;2023-08-12T12:04:31;29.70;99.90
1417;DHT22;703;51.162;13.574;2023-08-12T12:06:58;29.70;99.90
1417;DHT22;703;51.162;13.574;2023-08-12T12:09:24;29.90;99.90
1417;DHT22;703;51.162;13.574;2023-08-12T12:11:52;29.80;99.90
1417;DHT22;703;51.162;13.574;2023-08-12T12:14:17;30.00;99.90
1417;DHT22;703;51.162;13.574;2023-08-12T12:16:43;29.70;99.90
1417;DHT22;703;51.162;13.574;2023-08-12T12:19:22;29.70;99.90
1417;DHT22;703;51.162;13.574;2023-08-12T12:21:51;29.80;99.90
1417;DHT22;703;51.162;13.574;2023-08-12T12:24:18;29.80;99.90
1417;DHT22;703;51.162;13.574;2023-08-12T12:26:44;30.10;99.90
1417;DHT22;703;51.162;13.574;2023-08-12T12:29:09;30.10;99.90
1417;DHT22;703;51.162;13.574;2023-08-12T12:31:37;30.20;99.90
1417;DHT22;703;51.162;13.574;2023-08-12T12:34:02;30.30;99.90
1417;DHT22;703;51.162;13.574;2023-08-12T12:36:30;30.20;99.90
1417;DHT22;703;51.162;13.574;2023-08-12T12:38:55;30.00;99.90
1417;DHT22;703;51.162;13.574;2023-08-12T12:41:21;30.10;99.90
1417;DHT22;703;51.162;13.574;2023-08-12T12:43:47;30.10;99.90
1417;DHT22;703;51.162;13.574;2023-08-12T12:46:12;30.20;99.90
1417;DHT22;703;51.162;13.574;2023-08-12T12:48:38;30.10;99.90
1417;DHT22;703;51.162;13.574;2023-08-12T12:51:04;30.00;99.90
1417;DHT22;703;51.162;13.574;2023-08-12T12:53:29;29.80;99.90
1417;DHT22;703;51.162;13.574;2023-08-12T12:55:55;29.70;99.90
1417;DHT22;703;51.162;13.574;2023-08-12T12:58:22;29.60;99.90
1417;DHT22;703;51.162;13.574;2023-08-12T13:00:48;29.70;99.90
1417;DHT22;703;51.162;13.574;2023-08-12T13:03:14;29.80;99.90
1417;DHT22;703;51.162;13.574;2023-08-12T13:05:40;29.80;99.90
1417;DHT22;703;51.162;13.574;2023-08-12T13:08:05;29.90;99.90
1417;DHT22;703;51.162;13.574;2023-08-12T13:10:31;29.90;99.90
1417;DHT22;703;51.162;13.574;2023-08-12T13:12:56;30.00;99.90
1417;DHT22;703;51.162;13.574;2023-08-12T13:15:22;29.90;99.90
1417;DHT22;703;51.162;13.574;2023-08-12T13:17:49;29.90;99.90
1417;DHT22;703;51.162;13.574;2023-08-12T13:20:15;29.80;99.90
1417;DHT22;703;51.162;13.574;2023-08-12T13:22:40;29.60;99.90
1417;DHT22;703;51.162;13.574;2023-08-12T13:25:06;29.70;99.90
1417;DHT22;703;51.162;13.574;2023-08-12T13:27:32;29.80;99.90
1417;DHT22;703;51.162;13.574;2023-08-12T13:29:58;29.90;99.90
1417;DHT22;703;51.162;13.574;2023-08-12T13:32:23;32.90;99.90
1417;DHT22;703;51.162;13.574;2023-08-12T13:34:50;30.50;99.90
1417;DHT22;703;51.162;13.574;2023-08-12T13:37:16;31.20;99.90
1417;DHT22;703;51.162;13.574;2023-08-12T13:39:42;31.20;99.90
1417;DHT22;703;51.162;13.574;2023-08-12T13:42:10;31.50;99.90
1417;DHT22;703;51.162;13.574;2023-08-12T13:44:36;31.50;99.90
1417;DHT22;703;51.162;13.574;2023-08-12T13:47:01;31.60;99.90
1417;DHT22;703;51.162;13.574;2023-08-12T13:49:27;31.30;99.90
1417;DHT22;703;51.162;13.574;2023-08-12T13:51:53;31.10;99.90
1417;DHT22;703;51.162;13.574;2023-08-12T13:54:19;30.90;99.90
1417;DHT22;703;51.162;13.574;2023-08-12T13:56:44;31.00;99.90
1417;DHT22;703;51.162;13.574;2023-08-12T13:59:10;31.30;99.90
1417;DHT22;703;51.162;13.574;2023-08-12T14:01:35;31.70;99.90
1417;DHT22;703;51.162;13.574;2023-08-12T14:04:01;31.90;99.90
1417;DHT22;703;51.162;13.574;2023-08-12T14:06:26;32.80;99.90
1417;DHT22;703;51.162;13.574;2023-08-12T14:08:52;33.10;99.90
1417;DHT22;703;51.162;13.574;2023-08-12T14:11:17;33.10;99.90
1417;DHT22;703;51.162;13.574;2023-08-12T14:13:44;33.00;99.90
1417;DHT22;703;51.162;13.574;2023-08-12T14:16:10;33.10;99.90
1417;DHT22;703;51.162;13.574;2023-08-12T14:18:36;33.40;99.90
1417;DHT22;703;51.162;13.574;2023-08-12T14:21:01;33.20;99.90
1417;DHT22;703;51.162;13.574;2023-08-12T14:23:27;33.00;99.90
1417;DHT22;703;51.162;13.574;2023-08-12T14:25:52;33.00;99.90
1417;DHT22;703;51.162;13.574;2023-08-12T14:28:18;33.10;99.90
1417;DHT22;703;51.162;13.574;2023-08-12T14:30:43;33.60;99.90
1417;DHT22;703;51.162;13.574;2023-08-12T14:33:09;33.10;99.90
1417;DHT22;703;51.162;13.574;2023-08-12T14:35:34;32.90;99.90
1417;DHT22;703;51.162;13.574;2023-08-12T14:38:01;32.60;99.90
1417;DHT22;703;51.162;13.574;2023-08-12T14:40:26;33.00;99.90
1417;DHT22;703;51.162;13.574;2023-08-12T14:42:52;33.30;99.90
1417;DHT22;703;51.162;13.574;2023-08-12T14:45:17;33.30;99.90
1417;DHT22;703;51.162;13.574;2023-08-12T14:47:43;33.20;99.90
1417;DHT22;703;51.162;13.574;2023-08-12T14:50:08;33.10;99.90
1417;DHT22;703;51.162;13.574;2023-08-12T14:52:34;33.40;99.90
1417;DHT22;703;51.162;13.574;2023-08-12T14:55:00;33.20;99.90
1417;DHT22;703;51.162;13.574;2023-08-12T14:57:26;33.20;99.90
1417;DHT22;703;51.162;13.574;2023-08-12T14:59:51;33.30;99.90
1417;DHT22;703;51.162;13.574;2023-08-12T15:02:17;33.40;99.90
1417;DHT22;703;51.162;13.574;2023-08-12T15:04:43;32.90;99.90
1417;DHT22;703;51.162;13.574;2023-08-12T15:07:09;33.10;99.90
1417;DHT22;703;51.162;13.574;2023-08-12T15:09:34;33.50;99.90
1417;DHT22;703;51.162;13.574;2023-08-12T15:12:00;33.40;99.90
1417;DHT22;703;51.162;13.574;2023-08-12T15:14:25;33.30;99.90
1417;DHT22;703;51.162;13.574;2023-08-12T15:16:54;32.10;99.90
1417;DHT22;703;51.162;13.574;2023-08-12T15:19:19;31.50;99.90
1417;DHT22;703;51.162;13.574;2023-08-12T15:21:45;31.40;99.90
1417;DHT22;703;51.162;13.574;2023-08-12T15:24:10;31.10;99.90
1417;DHT22;703;51.162;13.574;2023-08-12T15:26:36;31.00;99.90
1417;DHT22;703;51.162;13.574;2023-08-12T15:29:01;30.90;99.90
1417;DHT22;703;51.162;13.574;2023-08-12T15:31:27;30.80;99.90
1417;DHT22;703;51.162;13.574;2023-08-12T15:33:53;30.70;99.90
1417;DHT22;703;51.162;13.574;2023-08-12T15:36:18;30.80;99.90
1417;DHT22;703;51.162;13.574;2023-08-12T15:38:45;30.90;99.90
1417;DHT22;703;51.162;13.574;2023-08-12T15:41:15;30.70;99.90
1417;DHT22;703;51.162;13.574;2023-08-12T15:43:40;30.60;99.90
1417;DHT22;703;51.162;13.574;2023-08-12T15:46:06;30.70;99.90
1417;DHT22;703;51.162;13.574;2023-08-12T15:48:32;30.60;99.90
1417;DHT22;703;51.162;13.574;2023-08-12T15:50:58;30.30;99.90
1417;DHT22;703;51.162;13.574;2023-08-12T15:53:23;30.20;99.90
1417;DHT22;703;51.162;13.574;2023-08-12T15:55:49;30.10;99.90
1417;DHT22;703;51.162;13.574;2023-08-12T15:58:14;29.90;99.90
1417;DHT22;703;51.162;13.574;2023-08-12T16:00:44;29.70;99.90
1417;DHT22;703;51.162;13.574;2023-08-12T16:03:09;29.70;99.90
1417;DHT22;703;51.162;13.574;2023-08-12T16:05:35;29.60;99.90
1417;DHT22;703;51.162;13.574;2023-08-12T16:08:01;29.60;99.90
1417;DHT22;703;51.162;13.574;2023-08-12T16:10:26;29.50;99.90
1417;DHT22;703;51.162;13.574;2023-08-12T16:12:52;29.40;99.90